キガリ国際空港の過去48時間の天気

キガリ国際空港 (Kigali)

現在時刻: 5/26 03:45 CAT (5/26 01:45 UTC) 以下の時間は現地時間です。

過去48時間のMETAR気象情報
時間 風向 風速(m/s) 視程 気温(℃) 湿度(%) 気圧(hPa) 天気現象
26 03:30 不定 1 10km以上 17 94 1022
26 03:00 2 10km以上 17 94 1022
26 02:30 北東 2 10km以上 17 94 1023
26 02:00 不定 1 10km以上 17 94 1023
26 01:30 北北東 1 10km以上 18 88 1023
26 01:00 2 10km以上 18 88 1023
26 00:30 北北東 3 10km以上 18 94 1024
26 00:00 北北東 2 10km以上 18 94 1024
25 23:30 北東 2 10km以上 18 94 1025
25 23:00 2 10km以上 18 88 1025
25 22:30 南南西 4 10km以上 18 94 1025
25 22:00 3 10km以上 19 83 1025
HRYR 260130Z VRB02KT 9999 FEW026 SCT100 17/16 Q1022 NOSIG
HRYR 260100Z 01004KT 9999 FEW026 SCT100 17/16 Q1022 NOSIG
HRYR 260030Z 04003KT 9999 FEW026 SCT100 17/16 Q1023 NOSIG
HRYR 260000Z VRB02KT 9999 FEW026 SCT100 17/16 Q1023 NOSIG
HRYR 252330Z 03002KT 9999 FEW026 SCT100 18/16 Q1023 NOSIG
HRYR 252300Z 01004KT 9999 FEW026 SCT100 18/16 Q1023 NOSIG
HRYR 252230Z 03005KT 9999 FEW026 SCT100 18/17 Q1024 NOSIG
HRYR 252200Z 02004KT 9999 FEW026 SCT100 18/17 Q1024 NOSIG
HRYR 252130Z 05003KT 360V070 9999 SCT026 SCT100 18/17 Q1025 NOSIG
HRYR 252100Z 19004KT 9999 SCT026 SCT100 18/16 Q1025 NOSIG
HRYR 252030Z 20008KT 9999 SCT026 SCT100 18/17 Q1025 NOSIG
HRYR 252000Z 19005KT 140V220 9999 SCT025 SCT100 19/16 Q1025 NOSIG